KBMT/BMT METAR and TAF weather

Enter ICAO airport designator
Station Type Date Time Source
KBMT METAR 2019/12/08 14:15 UTC NOAA

KBMT 081415Z AUTO 07003KT M1/4SM FG OVC003 11/10 A3013 RMK AO2 T01070102 TSNO


Station Type Date Time Source
KBMT Decoded METAR 2019/12/08 14:15 UTC NOAA

Station name not available
Dec 08, 2019 - 09:15 AM EST / 2019.12.08 1415 UTC
Wind: from the ENE (070 degrees) at 3 MPH (3 KT):0
Visibility: less than 1/4 mile(s):1
Sky conditions: overcast
Weather: fog
Temperature: 51.3 F (10.7 C)
Dew Point: 50.4 F (10.2 C)
Relative Humidity: 96%
Pressure (altimeter): 30.13 in. Hg (1020 hPa)
ob: KBMT 081415Z AUTO 07003KT M1/4SM FG OVC003 11/10 A3013 RMK AO2 T01070102 TSNO
cycle: 14

Station Type Date Time Source
KBMT TAF UTC NOAA

Error!

Example: see airport list